Time;durP1;ratioP1;P1;durP2;ratioP2;P2;SDS_P1;SDS_P2;PMS_P1;PMS_P2;Temp;Humidity;BMP_temperature;BMP_pressure;BME280_temperature;BME280_humidity;BME280_pressure;Samples;Min_cycle;Max_cycle;Signal;HPM_P1;HPM_P2
2022/12/14 00:01:14;;;;;;;105.47;42.30;;;;;;;-5.12;100.00;100530.63;4997620;28;20026;-73
2022/12/14 00:03:40;;;;;;;112.83;40.37;;;;;;;-5.13;100.00;100528.91;4988252;28;20026;-74
2022/12/14 00:06:12;;;;;;;103.87;38.47;;;;;;;-5.13;100.00;100523.63;4981292;28;20501;-74
2022/12/14 00:08:38;;;;;;;103.23;39.93;;;;;;;-5.16;100.00;100519.31;4997212;28;20112;-74
2022/12/14 00:11:03;;;;;;;94.80;40.57;;;;;;;-5.05;100.00;100526.78;4997269;28;20152;-74
2022/12/14 00:13:29;;;;;;;90.50;37.07;;;;;;;-5.20;100.00;100518.63;5009788;28;20375;-74
2022/12/14 00:15:54;;;;;;;83.57;35.60;;;;;;;-5.21;100.00;100527.47;4996023;28;20038;-74
2022/12/14 00:18:19;;;;;;;90.10;35.60;;;;;;;-5.19;100.00;100515.06;4997638;28;20033;-73
2022/12/14 00:20:44;;;;;;;90.47;34.93;;;;;;;-5.10;100.00;100526.97;4997410;28;20041;-74
2022/12/14 00:23:10;;;;;;;89.57;37.13;;;;;;;-5.05;100.00;100521.50;4988937;28;20022;-75
2022/12/14 00:25:35;;;;;;;91.97;35.40;;;;;;;-5.06;100.00;100522.44;4997240;28;20094;-74
2022/12/14 00:28:01;;;;;;;92.60;35.97;;;;;;;-5.30;100.00;100519.94;4996574;28;20080;-73
2022/12/14 00:30:26;;;;;;;98.13;35.70;;;;;;;-5.49;100.00;100516.38;4997447;28;20029;-74
2022/12/14 00:32:51;;;;;;;89.30;37.00;;;;;;;-5.45;100.00;100515.31;4995942;28;20036;-74
2022/12/14 00:35:17;;;;;;;93.33;36.20;;;;;;;-5.48;100.00;100508.41;5005043;28;20065;-74
2022/12/14 00:37:44;;;;;;;86.57;32.30;;;;;;;-5.52;100.00;100511.25;4980517;28;20029;-74
2022/12/14 00:40:10;;;;;;;90.10;37.53;;;;;;;-5.43;100.00;100504.72;4988765;28;20454;-74
2022/12/14 00:42:35;;;;;;;88.30;35.73;;;;;;;-5.47;100.00;100499.56;4993208;28;20109;-75
2022/12/14 00:45:02;;;;;;;88.53;35.87;;;;;;;-5.48;100.00;100507.53;5005658;28;20022;-74
2022/12/14 00:47:28;;;;;;;90.07;36.23;;;;;;;-5.60;100.00;100492.25;4991285;28;20483;-74
2022/12/14 00:49:53;;;;;;;92.90;34.30;;;;;;;-5.55;100.00;100501.66;4996602;28;20075;-74
2022/12/14 00:52:19;;;;;;;82.90;34.47;;;;;;;-5.57;100.00;100492.97;4996855;28;20052;-74
2022/12/14 00:54:44;;;;;;;91.30;35.13;;;;;;;-5.48;100.00;100491.69;5013052;28;20383;-74
2022/12/14 00:57:10;;;;;;;82.10;34.77;;;;;;;-5.52;100.00;100498.06;4996274;28;20018;-74
2022/12/14 00:59:35;;;;;;;86.57;36.50;;;;;;;-5.57;100.00;100500.03;4996284;28;20109;-74
2022/12/14 01:02:01;;;;;;;95.70;38.20;;;;;;;-5.56;100.00;100499.09;4995902;28;20071;-74
2022/12/14 01:04:27;;;;;;;83.43;33.57;;;;;;;-5.38;100.00;100498.31;4995690;28;20017;-73
2022/12/14 01:06:53;;;;;;;96.67;37.80;;;;;;;-5.40;100.00;100499.31;5005064;28;20022;-73
2022/12/14 01:09:21;;;;;;;93.03;36.73;;;;;;;-5.47;100.00;100509.28;4996437;28;20160;-73
2022/12/14 01:11:46;;;;;;;95.90;35.73;;;;;;;-5.49;100.00;100505.81;5013485;28;20051;-73
2022/12/14 01:14:14;;;;;;;84.43;34.47;;;;;;;-5.37;100.00;100510.56;4996056;28;20018;-73
2022/12/14 01:16:39;;;;;;;98.13;35.67;;;;;;;-5.51;100.00;100512.94;4992132;28;20022;-73
2022/12/14 01:19:05;;;;;;;93.07;36.00;;;;;;;-5.55;100.00;100500.81;4988136;28;20052;-73
2022/12/14 01:21:31;;;;;;;79.87;33.73;;;;;;;-5.51;100.00;100502.41;4995596;28;20022;-73
2022/12/14 01:23:59;;;;;;;89.87;34.13;;;;;;;-5.65;100.00;100499.50;4996276;28;20030;-73
2022/12/14 01:26:26;;;;;;;82.93;32.43;;;;;;;-5.69;100.00;100497.91;5007649;28;20026;-73
2022/12/14 01:28:56;;;;;;;84.20;32.70;;;;;;;-5.72;100.00;100492.78;4993390;28;20072;-73
2022/12/14 01:31:27;;;;;;;87.90;36.07;;;;;;;-5.71;100.00;100494.50;4995886;28;20547;-73
2022/12/14 01:33:53;;;;;;;79.53;33.22;;;;;;;-5.71;100.00;100489.22;4985660;28;20026;-73
2022/12/14 01:36:22;;;;;;;88.37;35.50;;;;;;;-5.77;100.00;100485.91;5006035;28;20125;-74
2022/12/14 01:38:52;;;;;;;89.83;34.47;;;;;;;-5.84;100.00;100483.59;4995403;28;20071;-73
2022/12/14 01:41:26;;;;;;;89.03;35.63;;;;;;;-5.88;100.00;100472.31;5004672;28;20026;-73
2022/12/14 01:43:53;;;;;;;83.30;33.97;;;;;;;-5.93;100.00;100468.19;4986867;28;20113;-74
2022/12/14 01:46:42;;;;;;;89.77;33.87;;;;;;;-5.89;100.00;100465.31;5012615;28;20033;-73
2022/12/14 01:49:17;;;;;;;81.97;32.43;;;;;;;-5.89;100.00;100460.06;4985661;28;20175;-74
2022/12/14 01:51:49;;;;;;;87.57;34.87;;;;;;;-5.95;100.00;100449.81;4994975;28;20112;-74
2022/12/14 01:54:15;;;;;;;88.37;36.50;;;;;;;-5.98;100.00;100465.75;4987935;28;20018;-73
2022/12/14 01:56:43;;;;;;;86.13;33.90;;;;;;;-6.05;100.00;100459.03;4994298;28;20029;-74
2022/12/14 01:59:15;;;;;;;89.63;32.83;;;;;;;-6.18;100.00;100442.88;4995564;28;20034;-73
2022/12/14 02:01:41;;;;;;;80.00;35.73;;;;;;;-6.25;100.00;100453.72;4994994;28;20026;-74
2022/12/14 02:04:07;;;;;;;86.13;32.20;;;;;;;-6.10;100.00;100445.19;4994955;28;20014;-76
2022/12/14 02:06:35;;;;;;;94.97;36.07;;;;;;;-6.13;100.00;100451.44;5010968;28;20026;-76
2022/12/14 02:09:06;;;;;;;93.47;35.17;;;;;;;-6.09;100.00;100449.53;4995127;28;20022;-75
2022/12/14 02:11:50;;;;;;;87.00;33.13;;;;;;;-6.08;100.00;100453.88;4998163;28;20109;-75
2022/12/14 02:14:16;;;;;;;89.40;34.83;;;;;;;-6.16;100.00;100453.34;4987054;28;20045;-75
2022/12/14 02:16:41;;;;;;;83.80;32.57;;;;;;;-6.20;100.00;100459.63;5012086;28;20037;-76
2022/12/14 02:19:07;;;;;;;83.03;33.83;;;;;;;-6.10;100.00;100451.31;4994725;28;20021;-75
2022/12/14 02:22:14;;;;;;;89.67;33.63;;;;;;;-6.10;100.00;100453.09;4994717;28;20112;-76
2022/12/14 02:24:57;;;;;;;85.13;34.20;;;;;;;-6.19;100.00;100458.75;4977974;28;20077;-75
2022/12/14 02:27:41;;;;;;;94.60;35.20;;;;;;;-6.24;100.00;100447.53;4988209;28;20038;-75
2022/12/14 02:30:13;;;;;;;87.73;36.00;;;;;;;-6.29;100.00;100456.47;4994254;28;20487;-75
2022/12/14 02:32:38;;;;;;;;;;;;;;;-6.28;100.00;100452.91;4988979;28;20061;-75
2022/12/14 02:35:26;;;;;;;87.27;34.60;;;;;;;-6.17;100.00;100449.00;4982899;28;20358;-75
2022/12/14 02:38:17;;;;;;;89.13;34.03;;;;;;;-6.20;100.00;100438.56;4994014;28;20033;-75
2022/12/14 02:41:07;;;;;;;91.07;32.53;;;;;;;-6.03;100.00;100446.63;4994481;28;20060;-75
2022/12/14 02:43:57;;;;;;;87.07;33.90;;;;;;;-6.26;100.00;100444.94;4989157;28;20033;-75
2022/12/14 02:46:28;;;;;;;88.47;33.17;;;;;;;-6.24;100.00;100437.00;5012010;28;20026;-75
2022/12/14 02:48:57;;;;;;;80.00;33.83;;;;;;;-6.34;100.00;100436.50;4994480;28;20091;-73
2022/12/14 02:51:31;;;;;;;83.00;34.70;;;;;;;-6.41;100.00;100430.63;4994584;28;20104;-74
2022/12/14 02:54:03;;;;;;;87.13;34.07;;;;;;;-6.51;100.00;100428.44;5011658;28;20065;-73
2022/12/14 02:56:35;;;;;;;88.10;34.60;;;;;;;-6.31;100.00;100421.44;4994429;28;20022;-73
2022/12/14 02:59:03;;;;;;;87.33;34.07;;;;;;;-6.36;100.00;100412.88;4994869;28;20059;-75
2022/12/14 03:01:29;;;;;;;89.70;32.60;;;;;;;-6.41;100.00;100420.09;4994148;28;20037;-74
2022/12/14 03:03:54;;;;;;;98.73;34.37;;;;;;;-6.40;100.00;100421.78;5010772;28;20026;-73
2022/12/14 03:06:27;;;;;;;89.53;34.97;;;;;;;-6.47;100.00;100409.78;4994290;28;20055;-73
2022/12/14 03:08:58;;;;;;;93.73;34.63;;;;;;;-6.41;100.00;100404.28;4993788;28;20030;-73
2022/12/14 03:11:37;;;;;;;85.25;35.90;;;;;;;-6.48;100.00;100412.50;5011851;28;20397;-73
2022/12/14 03:14:14;;;;;;;91.33;35.97;;;;;;;-6.49;100.00;100403.75;5011229;28;20022;-73
2022/12/14 03:16:43;;;;;;;78.30;31.83;;;;;;;-6.44;100.00;100407.06;4993875;28;20022;-74
2022/12/14 03:19:21;;;;;;;94.33;34.67;;;;;;;-6.44;100.00;100399.16;5011355;28;20086;-73
2022/12/14 03:21:53;;;;;;;86.27;32.67;;;;;;;-6.51;100.00;100400.34;4990133;28;20082;-73
2022/12/14 03:24:24;;;;;;;90.20;34.80;;;;;;;-6.38;100.00;100398.91;4998919;28;20068;-73
2022/12/14 03:26:57;;;;;;;88.47;33.75;;;;;;;-6.34;100.00;100400.47;4990415;28;20029;-73
2022/12/14 03:29:28;;;;;;;89.30;34.47;;;;;;;-6.44;100.00;100396.53;4993835;28;20029;-74
2022/12/14 03:31:57;;;;;;;96.75;33.20;;;;;;;-6.38;100.00;100396.28;5002927;28;20025;-76
2022/12/14 03:34:30;;;;;;;80.07;30.17;;;;;;;-6.41;100.00;100385.84;4986699;28;20033;-75
2022/12/14 03:37:11;;;;;;;90.37;33.30;;;;;;;-6.43;100.00;100385.06;4990847;28;20095;-75
2022/12/14 03:39:39;;;;;;;82.22;32.88;;;;;;;-6.56;100.00;100375.94;4994230;28;20471;-74
2022/12/14 03:42:22;;;;;;;90.40;32.07;;;;;;;-6.51;100.00;100371.38;4993544;28;20060;-74
2022/12/14 03:45:00;;;;;;;82.27;32.87;;;;;;;-6.40;100.00;100368.28;5011297;28;20017;-74
2022/12/14 03:47:31;;;;;;;88.23;32.30;;;;;;;-6.44;100.00;100372.81;4986758;28;20068;-74
2022/12/14 03:50:04;;;;;;;95.78;36.08;;;;;;;-6.47;100.00;100372.94;5010011;28;20112;-73
2022/12/14 03:52:41;;;;;;;92.40;34.40;;;;;;;-6.40;100.00;100369.13;4993755;28;20043;-74
2022/12/14 03:55:20;;;;;;;84.63;33.40;;;;;;;-6.30;100.00;100365.19;4991850;28;20025;-74
2022/12/14 03:58:04;;;;;;;88.90;32.47;;;;;;;-6.40;100.00;100374.38;4990359;28;20092;-74
2022/12/14 04:00:33;;;;;;;85.63;33.23;;;;;;;-6.37;100.00;100363.75;4999738;28;20077;-74
2022/12/14 04:03:17;;;;;;;82.23;31.27;;;;;;;-6.28;100.00;100365.97;5007313;28;20057;-74
2022/12/14 04:05:51;;;;;;;84.43;32.57;;;;;;;-6.41;100.00;100366.56;4980655;28;20033;-75
2022/12/14 04:08:52;;;;;;;82.93;32.57;;;;;;;-6.30;100.00;100365.19;5008116;28;20026;-76
2022/12/14 04:20:02;;;;;;;85.90;32.97;;;;;;;-6.54;100.00;100353.03;5012587;28;20042;-74
2022/12/14 04:22:32;;;;;;;84.07;32.17;;;;;;;-6.49;100.00;100348.44;5006188;28;20395;-74
2022/12/14 04:27:53;;;;;;;82.40;31.47;;;;;;;-6.54;100.00;100339.88;5014418;28;20036;-74
2022/12/14 04:30:19;;;;;;;87.70;34.23;;;;;;;-6.64;100.00;100333.28;4997548;28;20029;-73
2022/12/14 04:32:56;;;;;;;93.17;33.90;;;;;;;-6.58;100.00;100344.44;5005155;28;20052;-74
2022/12/14 04:35:24;;;;;;;80.73;33.50;;;;;;;-6.47;100.00;100346.59;5005068;28;20029;-74
2022/12/14 04:38:15;;;;;;;82.00;31.47;;;;;;;-6.37;100.00;100342.69;5024844;28;20021;-74
2022/12/14 04:40:47;;;;;;;82.32;32.10;;;;;;;-6.30;100.00;100341.50;4973202;28;20124;-75
2022/12/14 04:43:20;;;;;;;70.03;28.35;;;;;;;-6.35;100.00;100340.81;4994509;28;20081;-75
2022/12/14 04:45:51;;;;;;;81.47;30.50;;;;;;;-6.47;100.00;100340.47;4996535;28;20029;-74
2022/12/14 04:48:25;;;;;;;86.00;33.13;;;;;;;-6.58;100.00;100339.16;4996592;28;20018;-76
2022/12/14 04:51:00;;;;;;;81.80;33.00;;;;;;;-6.62;100.00;100334.94;5013643;28;21782;-73
2022/12/14 04:53:29;;;;;;;88.40;34.20;;;;;;;-6.53;100.00;100319.66;4988692;28;20485;-76
2022/12/14 04:56:30;;;;;;;84.70;33.47;;;;;;;-6.66;100.00;100324.59;5013873;28;20028;-75
2022/12/14 04:58:55;;;;;;;93.20;35.00;;;;;;;-6.70;100.00;100328.28;4979975;28;20037;-75
2022/12/14 05:01:30;;;;;;;86.63;33.33;;;;;;;-6.69;100.00;100325.59;5013365;28;20118;-75
2022/12/14 05:04:07;;;;;;;79.57;30.80;;;;;;;-6.73;100.00;100317.84;5013260;28;20022;-75
2022/12/14 05:07:08;;;;;;;79.50;33.30;;;;;;;-6.74;100.00;100321.41;5006241;28;20509;-75
2022/12/14 05:09:48;;;;;;;90.77;35.20;;;;;;;-6.69;100.00;100314.19;4972648;28;20044;-75
2022/12/14 05:12:36;;;;;;;91.87;32.70;;;;;;;-6.78;100.00;100315.44;5012999;28;20110;-75
2022/12/14 05:15:11;;;;;;;87.83;33.07;;;;;;;-6.70;100.00;100317.75;4996044;28;20026;-72
2022/12/14 05:17:38;;;;;;;83.23;31.73;;;;;;;-6.61;100.00;100312.09;4995874;28;20029;-74
2022/12/14 05:20:11;;;;;;;83.17;32.27;;;;;;;-6.59;100.00;100304.97;4996012;28;20026;-73
2022/12/14 05:22:37;;;;;;;90.07;35.07;;;;;;;-6.77;100.00;100316.28;5012881;28;20153;-73
2022/12/14 05:25:04;;;;;;;98.27;33.97;;;;;;;-6.76;100.00;100307.47;4987593;28;20111;-73
2022/12/14 05:27:29;;;;;;;87.53;34.17;;;;;;;-6.76;100.00;100307.47;4991257;28;20406;-73
2022/12/14 05:29:55;;;;;;;91.27;33.80;;;;;;;-6.70;100.00;100312.50;5001895;28;20121;-73
2022/12/14 05:32:20;;;;;;;89.60;33.00;;;;;;;-6.55;100.00;100306.56;4999220;28;20096;-73
2022/12/14 05:34:46;;;;;;;82.80;32.00;;;;;;;-6.52;100.00;100302.94;4993082;28;20026;-73
2022/12/14 05:37:11;;;;;;;83.97;33.17;;;;;;;-6.45;100.00;100302.66;4995224;28;20030;-74
2022/12/14 05:39:37;;;;;;;78.50;32.43;;;;;;;-6.64;100.00;100302.56;5012940;28;20046;-73
2022/12/14 05:42:02;;;;;;;86.87;33.00;;;;;;;-6.51;100.00;100302.06;4994780;28;20042;-74
2022/12/14 05:44:27;;;;;;;73.63;29.60;;;;;;;-6.55;100.00;100301.31;4995549;28;20029;-73
2022/12/14 05:46:53;;;;;;;88.67;31.80;;;;;;;-6.84;100.00;100300.75;4995423;28;20029;-74
2022/12/14 05:49:18;;;;;;;91.23;35.03;;;;;;;-6.95;100.00;100302.94;5012913;28;20032;-75
2022/12/14 05:51:44;;;;;;;107.20;36.80;;;;;;;-6.80;100.00;100306.72;4994757;28;20053;-73
2022/12/14 05:54:09;;;;;;;85.07;32.20;;;;;;;-6.73;100.00;100296.81;5004375;28;20403;-76
2022/12/14 05:56:35;;;;;;;93.73;37.87;;;;;;;-6.64;100.00;100296.44;4995170;28;20026;-74
2022/12/14 05:59:01;;;;;;;78.60;31.37;;;;;;;-6.58;100.00;100290.91;5012920;28;20545;-73
2022/12/14 06:01:26;;;;;;;96.37;35.20;;;;;;;-6.49;100.00;100295.78;4994911;28;20037;-74
2022/12/14 06:03:52;;;;;;;97.13;34.60;;;;;;;-6.61;100.00;100291.03;4986684;28;20089;-74
2022/12/14 06:06:17;;;;;;;81.53;32.77;;;;;;;-6.70;100.00;100286.16;5003933;28;20034;-74
2022/12/14 06:08:44;;;;;;;91.27;33.67;;;;;;;-6.84;100.00;100284.97;4994507;28;20463;-73
2022/12/14 06:11:16;;;;;;;87.20;33.63;;;;;;;-6.72;100.00;100277.47;4994688;28;20045;-74
2022/12/14 06:13:41;;;;;;;;;;;;;;;-6.73;100.00;100286.28;5012230;28;20083;-73
2022/12/14 06:16:16;;;;;;;89.40;32.63;;;;;;;-6.77;100.00;100295.25;4994925;28;20003;-73
2022/12/14 06:18:47;;;;;;;91.00;32.17;;;;;;;-6.65;100.00;100286.81;4994921;28;20041;-73
2022/12/14 06:21:14;;;;;;;79.63;31.25;;;;;;;-6.56;100.00;100274.13;5003837;28;20030;-75
2022/12/14 06:23:40;;;;;;;80.20;32.67;;;;;;;-6.61;100.00;100264.72;5011537;28;20032;-74
2022/12/14 06:26:06;;;;;;;83.93;32.23;;;;;;;-6.64;100.00;100270.97;4992991;23;20042;-71
2022/12/14 06:28:32;;;;;;;88.87;33.73;;;;;;;-6.70;100.00;100259.84;4974638;28;20068;-70
2022/12/14 06:30:57;;;;;;;92.00;35.43;;;;;;;-6.82;100.00;100268.25;4974672;28;20493;-71
2022/12/14 06:33:22;;;;;;;89.03;33.23;;;;;;;-6.88;100.00;100278.09;4981031;28;20035;-71
2022/12/14 06:35:48;;;;;;;95.87;34.23;;;;;;;-6.84;100.00;100274.44;4962080;28;20038;-71
2022/12/14 06:38:15;;;;;;;106.23;34.50;;;;;;;-6.69;100.00;100264.19;4992453;28;20093;-71
2022/12/14 06:40:40;;;;;;;90.23;35.93;;;;;;;-6.62;100.00;100263.00;4967096;28;20073;-71
2022/12/14 06:43:05;;;;;;;83.47;30.40;;;;;;;-6.52;100.00;100264.34;4972879;28;20066;-72
2022/12/14 06:45:32;;;;;;;84.30;33.43;;;;;;;-6.63;100.00;100271.81;4991899;28;20026;-72
2022/12/14 06:47:57;;;;;;;81.27;32.50;;;;;;;-6.74;100.00;100261.72;4973338;28;20057;-71
2022/12/14 06:50:24;;;;;;;82.73;33.00;;;;;;;-6.93;100.00;100263.41;4972360;28;20034;-71
2022/12/14 06:52:56;;;;;;;88.63;34.43;;;;;;;-6.93;100.00;100269.53;4973245;28;20037;-73
2022/12/14 06:55:22;;;;;;;89.03;34.13;;;;;;;-6.90;100.00;100269.41;4970819;28;20057;-73
2022/12/14 06:57:54;;;;;;;79.43;32.67;;;;;;;-6.96;100.00;100269.66;4990709;28;20101;-73
2022/12/14 07:00:21;;;;;;;90.93;35.13;;;;;;;-6.94;100.00;100275.72;4973944;28;20058;-73
2022/12/14 07:02:46;;;;;;;81.60;32.67;;;;;;;-6.80;100.00;100263.75;4973498;28;20026;-73
2022/12/14 07:05:12;;;;;;;97.10;36.10;;;;;;;-6.85;100.00;100262.19;4974227;28;20467;-72
2022/12/14 07:07:38;;;;;;;83.90;32.10;;;;;;;-6.92;100.00;100260.72;4973305;28;20034;-73
2022/12/14 07:10:05;;;;;;;84.67;34.73;;;;;;;-6.94;100.00;100246.78;4973824;28;20037;-73
2022/12/14 07:12:30;;;;;;;87.77;34.80;;;;;;;-6.95;100.00;100254.75;4971788;28;20126;-73
2022/12/14 07:14:56;;;;;;;87.47;34.23;;;;;;;-6.88;100.00;100250.94;4973667;28;20034;-74
2022/12/14 07:17:21;;;;;;;85.47;33.80;;;;;;;-6.82;100.00;100248.03;4975859;28;20022;-75
2022/12/14 07:19:47;;;;;;;86.27;32.77;;;;;;;-6.80;100.00;100247.97;5002588;28;20026;-74
2022/12/14 07:22:13;;;;;;;96.33;34.23;;;;;;;-6.78;100.00;100246.13;4975312;28;20030;-74
2022/12/14 07:24:39;;;;;;;89.63;34.07;;;;;;;-6.61;100.00;100254.19;4981194;28;20026;-74
2022/12/14 07:27:05;;;;;;;83.57;32.30;;;;;;;-6.36;100.00;100254.84;4971063;28;20022;-75
2022/12/14 07:29:30;;;;;;;76.67;29.27;;;;;;;-6.37;100.00;100253.13;4982431;28;20022;-74
2022/12/14 07:31:56;;;;;;;79.80;32.10;;;;;;;-6.29;100.00;100244.88;4991552;28;20081;-75
2022/12/14 07:34:21;;;;;;;91.10;30.93;;;;;;;-6.38;99.15;100245.31;4973328;28;20383;-75
2022/12/14 07:36:53;;;;;;;83.43;31.60;;;;;;;-6.32;98.96;100245.91;4979698;28;20039;-74
2022/12/14 07:39:20;;;;;;;84.20;30.07;;;;;;;-6.38;98.11;100246.16;4959098;28;20034;-74
2022/12/14 07:41:47;;;;;;;77.90;30.00;;;;;;;-6.41;98.01;100256.81;4957620;28;20077;-74
2022/12/14 07:44:13;;;;;;;92.80;32.43;;;;;;;-6.48;97.41;100259.78;4960144;28;20113;-74
2022/12/14 07:46:39;;;;;;;81.50;31.53;;;;;;;-6.52;98.72;100253.81;4991643;28;20137;-75
2022/12/14 07:49:05;;;;;;;98.60;34.27;;;;;;;-6.51;98.76;100254.66;4977478;28;20022;-74
2022/12/14 07:51:34;;;;;;;77.73;31.97;;;;;;;-6.61;98.98;100248.91;4966773;28;20034;-75
2022/12/14 07:54:01;;;;;;;87.40;32.90;;;;;;;-6.73;99.64;100249.44;4969447;28;20030;-74
2022/12/14 07:56:33;;;;;;;84.60;33.60;;;;;;;-6.82;100.00;100255.09;4994510;28;20475;-74
2022/12/14 07:59:00;;;;;;;87.47;33.90;;;;;;;-6.66;100.00;100249.09;4972362;28;20033;-72
2022/12/14 08:01:28;;;;;;;82.93;31.80;;;;;;;-6.48;100.00;100244.84;4972406;28;20126;-74
2022/12/14 08:03:59;;;;;;;86.30;33.07;;;;;;;-6.42;98.97;100244.56;4994397;28;20026;-74
2022/12/14 08:06:27;;;;;;;83.82;32.75;;;;;;;-6.37;97.83;100237.34;4990614;28;20038;-74
2022/12/14 08:08:54;;;;;;;86.80;33.90;;;;;;;-6.34;97.64;100242.44;4970583;28;20044;-74
2022/12/14 08:11:23;;;;;;;77.07;31.87;;;;;;;-6.35;97.40;100246.00;4989685;28;20105;-74
2022/12/14 08:14:00;;;;;;;80.63;33.63;;;;;;;-6.37;98.03;100247.88;4970132;28;20089;-74
2022/12/14 08:16:26;;;;;;;85.90;34.83;;;;;;;-6.37;98.45;100247.88;4966938;28;21989;-73
2022/12/14 08:18:53;;;;;;;92.67;37.43;;;;;;;-6.33;98.80;100233.63;4970767;28;20049;-73
2022/12/14 08:21:20;;;;;;;77.57;33.67;;;;;;;-6.39;99.33;100239.19;4972424;28;20493;-73
2022/12/14 08:23:49;;;;;;;87.60;35.73;;;;;;;-6.31;99.95;100230.94;4988499;28;20037;-73
2022/12/14 08:26:15;;;;;;;91.80;36.83;;;;;;;-6.31;100.00;100233.56;4969231;28;20093;-73
2022/12/14 08:28:40;;;;;;;85.87;34.10;;;;;;;-6.25;100.00;100224.56;4968736;28;20543;-74
2022/12/14 08:31:12;;;;;;;92.07;36.07;;;;;;;-6.13;100.00;100229.25;5001881;28;20030;-74
2022/12/14 08:33:39;;;;;;;91.93;33.28;;;;;;;-6.06;100.00;100225.44;4966021;28;20051;-73
2022/12/14 08:36:09;;;;;;;87.90;34.43;;;;;;;-5.92;100.00;100227.44;4976112;28;20088;-74
2022/12/14 08:38:36;;;;;;;84.95;32.92;;;;;;;-6.06;100.00;100220.16;4979603;28;20022;-73
2022/12/14 08:41:09;;;;;;;86.20;33.57;;;;;;;-5.96;100.00;100225.88;4972358;28;20116;-74
2022/12/14 08:43:35;;;;;;;80.77;33.70;;;;;;;-5.84;100.00;100220.84;4970185;28;20046;-74
2022/12/14 08:46:02;;;;;;;78.67;32.63;;;;;;;-5.64;100.00;100221.72;4970082;28;20050;-73
2022/12/14 08:48:27;;;;;;;79.57;32.47;;;;;;;-5.58;100.00;100211.72;4962924;28;20084;-73
2022/12/14 08:50:53;;;;;;;84.43;32.90;;;;;;;-5.80;100.00;100217.16;4971442;28;20058;-74
2022/12/14 08:53:19;;;;;;;74.63;31.33;;;;;;;-5.76;100.00;100213.44;4967852;28;20030;-74
2022/12/14 08:55:45;;;;;;;82.70;34.30;;;;;;;-5.59;100.00;100215.28;4971208;28;20124;-74
2022/12/14 08:58:11;;;;;;;87.27;34.30;;;;;;;-5.42;100.00;100206.56;4970070;28;20022;-73
2022/12/14 09:00:39;;;;;;;77.90;32.50;;;;;;;-5.32;100.00;100213.13;4966002;28;20031;-73
2022/12/14 09:03:05;;;;;;;77.50;32.80;;;;;;;-5.11;100.00;100205.09;4988070;28;20088;-73
2022/12/14 09:05:32;;;;;;;72.57;31.47;;;;;;;-5.07;99.98;100196.09;4969846;28;20030;-74
2022/12/14 09:07:58;;;;;;;81.23;32.43;;;;;;;-4.86;100.00;100202.94;4971110;28;20056;-74
2022/12/14 09:10:23;;;;;;;79.23;32.73;;;;;;;-4.89;99.46;100189.91;4970027;28;20066;-74
2022/12/14 09:12:48;;;;;;;76.73;32.10;;;;;;;-4.73;98.84;100201.38;4987201;28;20033;-74
2022/12/14 09:15:14;;;;;;;71.10;30.03;;;;;;;-4.62;98.69;100202.63;4970938;28;20026;-74
2022/12/14 09:17:40;;;;;;;76.20;30.80;;;;;;;-4.57;98.90;100190.88;4969180;28;20030;-74
2022/12/14 09:20:06;;;;;;;85.23;31.03;;;;;;;-4.60;98.78;100195.47;4970748;28;20026;-74
2022/12/14 09:22:31;;;;;;;73.20;33.20;;;;;;;-4.48;98.75;100205.41;4969740;28;20030;-74
2022/12/14 09:24:56;;;;;;;65.40;29.47;;;;;;;-4.40;99.08;100198.78;4970817;28;20025;-74
2022/12/14 09:27:22;;;;;;;68.30;27.53;;;;;;;-4.29;98.06;100195.59;4969612;28;20022;-74
2022/12/14 09:29:49;;;;;;;69.63;30.03;;;;;;;-4.23;98.38;100192.63;4986847;28;20101;-74
2022/12/14 09:32:14;;;;;;;69.17;31.43;;;;;;;-4.00;98.38;100201.09;4968528;28;20026;-74
2022/12/14 09:34:40;;;;;;;68.03;31.13;;;;;;;-4.00;97.50;100191.38;4966380;28;20026;-74
2022/12/14 09:37:08;;;;;;;67.40;27.07;;;;;;;-4.01;97.29;100191.47;4970799;28;20019;-76
2022/12/14 09:39:34;;;;;;;60.70;28.00;;;;;;;-4.16;95.63;100191.38;4973258;28;20026;-76
2022/12/14 09:42:34;;;;;;;58.80;26.90;;;;;;;-4.25;96.30;100181.25;4981060;28;20022;-76
2022/12/14 09:45:17;;;;;;;56.93;26.33;;;;;;;-4.15;96.79;100179.84;4987559;28;20018;-74
2022/12/14 09:48:06;;;;;;;65.20;26.67;;;;;;;-4.02;96.08;100181.84;4967463;28;20105;-73
2022/12/14 09:50:31;;;;;;;55.67;23.93;;;;;;;-3.85;94.51;100173.81;4968825;28;21294;-75
2022/12/14 09:53:04;;;;;;;53.53;24.93;;;;;;;-3.83;94.90;100178.09;4964738;28;20530;-75
2022/12/14 09:55:42;;;;;;;59.43;24.97;;;;;;;-3.76;94.90;100178.63;4973073;28;20042;-75
2022/12/14 09:58:19;;;;;;;57.50;25.37;;;;;;;-3.63;94.65;100174.34;4972674;28;20022;-75
2022/12/14 10:00:57;;;;;;;57.80;25.37;;;;;;;-3.25;92.87;100174.00;4971537;28;20034;-75
2022/12/14 10:03:45;;;;;;;59.97;26.60;;;;;;;-3.45;93.23;100176.91;4968648;28;20025;-75
2022/12/14 10:06:31;;;;;;;59.97;26.03;;;;;;;-3.58;93.86;100172.31;4985644;28;20065;-75
2022/12/14 10:09:35;;;;;;;69.97;26.93;;;;;;;-3.24;93.98;100165.09;4982795;28;20034;-75
2022/12/14 10:12:19;;;;;;;65.57;29.77;;;;;;;-2.71;93.37;100158.44;4964295;28;20407;-75
2022/12/14 10:14:54;;;;;;;66.97;27.17;;;;;;;-2.66;92.83;100156.38;4977857;28;20018;-75
2022/12/14 10:17:40;;;;;;;67.97;27.93;;;;;;;-2.47;91.84;100151.69;4970262;28;20034;-76
2022/12/14 10:20:18;;;;;;;52.80;24.73;;;;;;;-2.71;91.10;100147.84;4988361;28;20038;-75
2022/12/14 10:22:46;;;;;;;51.87;25.20;;;;;;;-2.39;91.84;100142.41;4968105;28;20040;-75
2022/12/14 10:25:17;;;;;;;59.40;27.53;;;;;;;-2.31;91.04;100150.72;4971505;28;20124;-76
2022/12/14 10:27:52;;;;;;;60.30;26.83;;;;;;;-2.26;89.93;100143.34;4970545;28;20036;-76
2022/12/14 10:30:22;;;;;;;52.10;24.90;;;;;;;-2.23;90.89;100143.16;4977111;28;20030;-75
2022/12/14 10:32:53;;;;;;;50.33;23.43;;;;;;;-1.92;89.21;100140.28;4969594;28;20038;-76
2022/12/14 10:35:28;;;;;;;51.50;22.70;;;;;;;-2.06;89.74;100135.00;4992271;28;20505;-77
2022/12/14 10:38:23;;;;;;;66.87;28.20;;;;;;;-1.80;90.11;100136.00;4970858;28;20033;-76
2022/12/14 10:40:53;;;;;;;50.70;24.07;;;;;;;-1.52;88.02;100134.22;4988896;28;20030;-76
2022/12/14 10:43:51;;;;;;;59.57;25.90;;;;;;;-1.83;87.69;100124.72;4980066;28;20383;-74
2022/12/14 10:46:49;;;;;;;62.53;25.83;;;;;;;-1.68;87.34;100129.06;4961808;28;20065;-74
2022/12/14 10:49:28;;;;;;;53.20;24.93;;;;;;;-1.30;86.96;100128.38;4961021;28;20065;-75
2022/12/14 10:52:06;;;;;;;48.53;23.37;;;;;;;-1.29;86.04;100124.78;4969393;28;20019;-75
2022/12/14 10:54:37;;;;;;;47.70;22.37;;;;;;;-0.94;84.65;100115.28;4973372;28;20109;-75
2022/12/14 10:57:02;;;;;;;55.05;22.75;;;;;;;-1.21;82.66;100133.06;4972429;28;20030;-75
2022/12/14 10:59:33;;;;;;;49.17;21.50;;;;;;;-1.25;84.07;100126.25;4968302;28;20126;-75
2022/12/14 11:02:07;;;;;;;40.00;19.52;;;;;;;-1.20;83.06;100118.84;4983858;28;20449;-75
2022/12/14 11:04:51;;;;;;;42.40;20.73;;;;;;;-1.15;82.73;100122.06;4969318;28;20023;-76
2022/12/14 11:07:20;;;;;;;45.90;18.80;;;;;;;-0.98;81.48;100110.28;4970631;28;20031;-75
2022/12/14 11:09:46;;;;;;;39.83;19.67;;;;;;;-0.73;80.76;100106.81;4967940;28;20669;-75
2022/12/14 11:12:16;;;;;;;41.67;19.63;;;;;;;-0.78;80.55;100108.91;4980929;28;20026;-74
2022/12/14 11:14:54;;;;;;;42.17;19.40;;;;;;;-1.00;80.87;100110.38;4981610;28;20019;-75
2022/12/14 11:17:32;;;;;;;43.07;21.70;;;;;;;-0.83;81.37;100106.59;4968407;28;20035;-74
2022/12/14 11:20:03;;;;;;;46.53;22.00;;;;;;;-0.85;80.68;100109.38;4970315;28;20022;-76
2022/12/14 11:22:42;;;;;;;45.22;19.75;;;;;;;-0.64;80.05;100095.56;4978664;28;20430;-76
2022/12/14 11:25:38;;;;;;;45.80;19.53;;;;;;;-0.61;80.21;100100.66;4988195;28;20037;-74
2022/12/14 11:28:25;;;;;;;53.03;23.17;;;;;;;-0.51;80.28;100091.09;4962947;28;20018;-74
2022/12/14 11:31:13;;;;;;;48.63;21.00;;;;;;;-0.48;81.16;100090.88;4963194;28;20030;-75
2022/12/14 11:33:55;;;;;;;47.67;22.10;;;;;;;-0.11;80.34;100099.75;4967823;28;20018;-75